VRG1345 SBKP-SBGL
Flight info
| Callsign | VRG1345 |
|---|---|
| Flight time | N/A |
| Altitude | 27000 |
| Route | UREMI UZ42 VUREP |
| Aircraft | B77L/H-SDE1E2E3FGHIJ2J3J4J5M1RWXY/LB1D1 |
Departure
| Time | 2026-05-01 12:01 |
|---|---|
| Airport | Viracopos International Airport (SBKP) |
Arrival
| Time | N/A |
|---|---|
| Airport | Rio Galeão – Tom Jobim International Airport (SBGL) |
| Time | Latitude | Longitude | Altitude | Speed | Heading |
|---|---|---|---|---|---|
| 2026-05-01 11:45 | -23.00548 | -47.14363 | 2161 ft | 0 kts | 218° |
| 2026-05-01 11:55 | -23.00542 | -47.14357 | 2161 ft | 3 kts | 218° |
| 2026-05-01 11:56 | -23.00525 | -47.14343 | 2153 ft | 3 kts | 217° |
| 2026-05-01 11:56 | -23.00511 | -47.14334 | 2153 ft | 1 kts | 261° |
| 2026-05-01 11:56 | -23.00509 | -47.14332 | 2153 ft | 0 kts | 302° |
| 2026-05-01 11:57 | -23.00501 | -47.14346 | 2153 ft | 0 kts | 302° |
| 2026-05-01 11:58 | -23.00439 | -47.14425 | 2154 ft | 18 kts | 314° |
| 2026-05-01 11:59 | -23.00333 | -47.14555 | 2155 ft | 24 kts | 308° |
| 2026-05-01 11:59 | -23.00224 | -47.14694 | 2154 ft | 24 kts | 310° |
| 2026-05-01 11:59 | -23.00148 | -47.14790 | 2157 ft | 0 kts | 309° |
| 2026-05-01 12:00 | -23.00018 | -47.14807 | 2156 ft | 28 kts | 9° |
| 2026-05-01 12:00 | -22.99926 | -47.14757 | 2154 ft | 0 kts | 45° |
| 2026-05-01 12:00 | -22.99884 | -47.14689 | 2154 ft | 15 kts | 79° |
| 2026-05-01 12:01 | -23.00022 | -47.14458 | 2156 ft | 82 kts | 130° |
| 2026-05-01 12:01 | -23.00570 | -47.13671 | 2187 ft | 174 kts | 128° |
| 2026-05-01 12:01 | -23.01364 | -47.12543 | 3025 ft | 196 kts | 122° |
| 2026-05-01 12:01 | -23.02104 | -47.11283 | 4206 ft | 195 kts | 117° |
| 2026-05-01 12:02 | -23.02724 | -47.10019 | 5603 ft | 185 kts | 109° |
| 2026-05-01 12:02 | -23.03112 | -47.08720 | 6990 ft | 179 kts | 97° |
| 2026-05-01 12:02 | -23.03166 | -47.07342 | 7970 ft | 195 kts | 79° |
| 2026-05-01 12:02 | -23.02806 | -47.05774 | 8296 ft | 239 kts | 74° |
| 2026-05-01 12:03 | -23.02433 | -47.03804 | 8455 ft | 292 kts | 80° |
| 2026-05-01 12:03 | -23.02211 | -47.01549 | 9639 ft | 296 kts | 86° |
| 2026-05-01 12:03 | -23.02195 | -46.99449 | 11682 ft | 258 kts | 93° |
| 2026-05-01 12:03 | -23.02367 | -46.97641 | 13543 ft | 230 kts | 99° |